Time;durP1;ratioP1;P1;durP2;ratioP2;P2;SDS_P1;SDS_P2;PMS_P1;PMS_P2;Temp;Humidity;BMP_temperature;BMP_pressure;BME280_temperature;BME280_humidity;BME280_pressure;Samples;Min_cycle;Max_cycle;Signal;HPM_P1;HPM_P2
2022/09/22 00:01:18;;;;;;;6.28;2.63;;;;;;;10.89;79.05;101788.53;4971922;28;20051;-62
2022/09/22 00:03:48;;;;;;;5.05;2.13;;;;;;;10.85;79.02;101792.19;4982355;28;20042;-64
2022/09/22 00:06:16;;;;;;;5.10;2.78;;;;;;;10.83;79.72;101791.41;4969311;28;20053;-64
2022/09/22 00:08:48;;;;;;;6.22;2.78;;;;;;;10.81;80.29;101788.88;4989361;28;20062;-65
2022/09/22 00:11:19;;;;;;;4.90;2.50;;;;;;;10.79;81.72;101784.56;4989702;28;20056;-64
2022/09/22 00:13:52;;;;;;;5.57;2.20;;;;;;;10.68;83.12;101779.75;4976076;28;20073;-65
2022/09/22 00:16:21;;;;;;;4.22;2.42;;;;;;;10.59;84.09;101780.97;4990462;28;20451;-65
2022/09/22 00:18:49;;;;;;;5.22;2.55;;;;;;;10.53;84.58;101783.84;4986766;28;20066;-66
2022/09/22 00:21:18;;;;;;;5.03;2.33;;;;;;;10.51;84.98;101784.84;4982551;28;20407;-65
2022/09/22 00:23:46;;;;;;;5.03;2.80;;;;;;;10.51;84.90;101776.94;4986528;28;20084;-65
2022/09/22 00:26:16;;;;;;;6.57;2.42;;;;;;;10.48;84.48;101791.06;4986668;28;20082;-65
2022/09/22 00:28:44;;;;;;;6.03;2.15;;;;;;;10.51;82.33;101779.56;4986039;28;20062;-65
2022/09/22 00:31:15;;;;;;;3.92;2.42;;;;;;;10.53;82.09;101780.34;4983447;28;20058;-65
2022/09/22 00:33:45;;;;;;;6.88;2.83;;;;;;;10.53;81.58;101768.03;4987126;28;20062;-64
2022/09/22 00:36:13;;;;;;;4.68;2.47;;;;;;;10.51;81.89;101777.78;4984571;28;20137;-65
2022/09/22 00:38:40;;;;;;;4.30;2.30;;;;;;;10.47;81.81;101773.56;4968748;28;20058;-64
2022/09/22 00:41:14;;;;;;;2.67;1.90;;;;;;;10.46;81.34;101771.00;4971671;28;20069;-65
2022/09/22 00:43:42;;;;;;;3.72;2.40;;;;;;;10.47;80.38;101773.56;4969275;28;20058;-66
2022/09/22 00:46:24;;;;;;;3.50;2.15;;;;;;;10.54;79.70;101776.81;4986988;28;20047;-65
2022/09/22 00:48:56;;;;;;;3.50;2.30;;;;;;;10.53;79.90;101775.94;4968920;28;20055;-65
2022/09/22 00:51:24;;;;;;;2.47;1.83;;;;;;;10.44;80.75;101770.19;4971572;28;20061;-65
2022/09/22 00:53:52;;;;;;;4.20;2.30;;;;;;;10.42;79.40;101767.63;4985322;28;20785;-64
2022/09/22 00:56:22;;;;;;;5.00;2.50;;;;;;;10.42;80.63;101767.63;4987145;28;20564;-64
2022/09/22 00:58:52;;;;;;;4.05;2.80;;;;;;;10.31;82.41;101775.06;4972564;28;20062;-65
2022/09/22 01:01:20;;;;;;;4.82;2.22;;;;;;;10.24;83.34;101770.97;4968471;28;20411;-65
2022/09/22 01:03:48;;;;;;;5.90;2.72;;;;;;;10.15;84.20;101764.28;4974251;28;20058;-65
2022/09/22 01:06:19;;;;;;;7.15;2.88;;;;;;;10.13;84.56;101766.97;4971385;28;20609;-65
2022/09/22 01:08:46;;;;;;;3.38;2.22;;;;;;;10.07;85.56;101767.19;4970641;28;20054;-66
2022/09/22 01:11:14;;;;;;;2.88;2.20;;;;;;;9.99;85.12;101771.03;4971990;28;20050;-65
2022/09/22 01:14:03;;;;;;;3.40;2.15;;;;;;;9.95;87.00;101766.81;4971164;28;20047;-65
2022/09/22 01:16:41;;;;;;;5.35;2.47;;;;;;;9.88;87.34;101766.19;4985316;28;20061;-65
2022/09/22 01:19:46;;;;;;;5.65;2.33;;;;;;;9.84;88.11;101765.44;4970916;28;20050;-65
2022/09/22 01:22:48;;;;;;;3.42;2.72;;;;;;;9.81;88.91;101765.56;4985555;28;20042;-64
2022/09/22 01:25:32;;;;;;;5.60;2.95;;;;;;;9.77;88.76;101757.84;4986194;28;20566;-66
2022/09/22 01:28:04;;;;;;;5.05;2.22;;;;;;;9.75;87.73;101759.69;4968330;28;20056;-65
2022/09/22 01:30:48;;;;;;;4.47;2.10;;;;;;;9.78;86.99;101760.44;4987329;28;20054;-65
2022/09/22 01:33:31;;;;;;;5.90;2.80;;;;;;;9.78;86.11;101760.44;4968476;28;20078;-64
2022/09/22 01:36:01;;;;;;;2.88;2.03;;;;;;;9.76;86.05;101756.13;4964941;28;20485;-64
2022/09/22 01:38:31;;;;;;;5.32;2.05;;;;;;;9.74;86.28;101757.97;4972584;28;20067;-64
2022/09/22 01:41:01;;;;;;;6.45;2.10;;;;;;;9.77;85.88;101755.22;4968606;28;20050;-64
2022/09/22 01:43:33;;;;;;;2.97;2.00;;;;;;;9.80;85.07;101761.22;4969392;28;20422;-65
2022/09/22 01:46:05;;;;;;;4.93;2.40;;;;;;;9.78;84.57;101754.31;4967312;28;20134;-64
2022/09/22 01:48:34;;;;;;;5.13;1.95;;;;;;;9.76;84.80;101761.38;4950859;28;20065;-64
2022/09/22 01:51:12;;;;;;;3.10;2.17;;;;;;;9.74;84.42;101758.81;4969113;28;20146;-66
2022/09/22 01:53:46;;;;;;;3.13;2.08;;;;;;;9.79;82.97;101759.50;4980161;28;20063;-66
2022/09/22 01:56:14;;;;;;;6.95;2.50;;;;;;;9.83;82.75;101761.09;4965951;28;20053;-64
2022/09/22 01:58:46;;;;;;;3.17;2.15;;;;;;;9.73;85.40;101756.25;4973604;28;20135;-64
2022/09/22 02:01:19;;;;;;;3.75;2.20;;;;;;;9.74;83.67;101748.31;4971586;28;20192;-64
2022/09/22 02:03:50;;;;;;;3.95;2.13;;;;;;;9.77;83.09;101752.56;4971242;28;20070;-64
2022/09/22 02:06:25;;;;;;;4.43;2.25;;;;;;;9.79;82.50;101753.41;4979143;28;20113;-65
2022/09/22 02:08:55;;;;;;;3.17;2.40;;;;;;;9.77;82.73;101750.84;4951660;28;20057;-67
2022/09/22 02:11:23;;;;;;;4.38;2.35;;;;;;;9.74;82.50;101750.09;4951594;28;20057;-65
2022/09/22 02:13:50;;;;;;;3.08;2.10;;;;;;;9.66;82.89;101747.72;4968910;28;20058;-65
2022/09/22 02:16:19;;;;;;;2.45;2.13;;;;;;;9.69;82.35;101750.25;4967904;28;20043;-65
2022/09/22 02:19:04;;;;;;;3.35;2.30;;;;;;;9.64;84.96;101745.16;4966917;28;20059;-65
2022/09/22 02:21:40;;;;;;;3.45;2.53;;;;;;;9.54;83.84;101762.16;4958767;28;20530;-65
2022/09/22 02:24:25;;;;;;;9.68;3.17;;;;;;;9.53;84.16;101762.25;4949473;28;20054;-65
2022/09/22 02:26:52;;;;;;;4.70;2.72;;;;;;;9.50;83.46;101760.59;4968262;28;20135;-65
2022/09/22 02:29:21;;;;;;;9.52;2.95;;;;;;;9.49;84.50;101764.13;4951264;28;20066;-66
2022/09/22 02:31:49;;;;;;;8.05;2.97;;;;;;;9.46;84.42;101760.75;4973352;28;20050;-66
2022/09/22 02:34:17;;;;;;;3.88;2.30;;;;;;;9.44;84.19;101759.94;4956109;28;20054;-65
2022/09/22 02:36:53;;;;;;;6.70;2.90;;;;;;;9.45;83.69;101761.66;4989327;28;20065;-64
2022/09/22 02:39:28;;;;;;;;;;;;;;;9.40;84.68;101767.06;4972804;28;20563;-66
2022/09/22 02:41:58;;;;;;;5.60;2.40;;;;;;;9.38;84.95;101756.63;4972566;28;20521;-65
2022/09/22 02:44:34;;;;;;;3.67;2.60;;;;;;;9.32;84.99;101759.47;4989827;28;20050;-65
2022/09/22 02:47:23;;;;;;;4.63;2.53;;;;;;;9.28;85.04;101750.00;4971836;28;20055;-65
2022/09/22 02:49:51;;;;;;;4.03;2.50;;;;;;;9.32;84.24;101766.47;4974229;28;20074;-65
2022/09/22 02:52:21;;;;;;;3.58;2.60;;;;;;;9.30;84.25;101757.81;4975416;28;20051;-65
2022/09/22 02:54:51;;;;;;;4.82;1.90;;;;;;;9.30;83.71;101755.19;4972477;28;20054;-65
2022/09/22 02:57:19;;;;;;;4.18;2.05;;;;;;;9.30;83.24;101756.03;4974877;28;20135;-64
2022/09/22 02:59:46;;;;;;;3.85;2.03;;;;;;;9.23;84.12;101751.94;4991657;28;20542;-65
2022/09/22 03:02:13;;;;;;;3.88;2.20;;;;;;;9.19;83.90;101745.06;4975902;28;20090;-64
2022/09/22 03:04:40;;;;;;;3.65;2.35;;;;;;;9.18;84.62;101750.34;4991137;28;20057;-66
2022/09/22 03:07:07;;;;;;;3.38;2.35;;;;;;;9.15;84.70;101755.75;4972033;28;20046;-66
2022/09/22 03:09:34;;;;;;;4.78;2.70;;;;;;;9.08;84.79;101749.81;4990936;28;20065;-65
2022/09/22 03:12:02;;;;;;;4.05;2.47;;;;;;;9.05;85.28;101750.81;4965780;28;20058;-65
2022/09/22 03:14:29;;;;;;;3.55;2.20;;;;;;;9.05;84.30;101742.03;4987070;28;20146;-65
2022/09/22 03:16:56;;;;;;;3.83;2.45;;;;;;;9.08;83.70;101745.41;4988596;28;20050;-65
2022/09/22 03:19:23;;;;;;;4.35;2.10;;;;;;;9.16;83.31;101754.81;4985404;28;20401;-66
2022/09/22 03:21:51;;;;;;;4.10;2.28;;;;;;;9.13;83.32;101751.38;4987178;28;20057;-65
2022/09/22 03:24:18;;;;;;;6.10;2.70;;;;;;;9.14;83.47;101747.00;4968767;28;20535;-65
2022/09/22 03:26:45;;;;;;;3.45;1.95;;;;;;;9.09;82.88;101752.38;4972825;28;20074;-65
2022/09/22 03:29:12;;;;;;;3.97;2.30;;;;;;;9.08;82.74;101749.81;4987828;28;20395;-65
2022/09/22 03:31:39;;;;;;;4.43;2.47;;;;;;;9.09;83.28;101749.75;4987956;28;20057;-64
2022/09/22 03:34:06;;;;;;;4.78;2.63;;;;;;;9.12;83.05;101751.44;4971558;28;20073;-66
2022/09/22 03:36:34;;;;;;;4.47;2.30;;;;;;;9.03;83.30;101746.50;4968022;28;20078;-64
2022/09/22 03:39:01;;;;;;;3.65;2.30;;;;;;;9.05;82.82;101757.78;4970154;28;20054;-65
2022/09/22 03:41:28;;;;;;;4.28;2.55;;;;;;;9.04;82.56;101759.56;4970623;28;20058;-65
2022/09/22 03:43:55;;;;;;;3.25;2.17;;;;;;;8.96;83.42;101751.13;4970679;28;20534;-64
2022/09/22 03:46:22;;;;;;;5.43;3.35;;;;;;;8.88;84.36;101747.88;4963566;28;20043;-65
2022/09/22 03:48:50;;;;;;;8.02;2.95;;;;;;;8.84;84.21;101755.00;4971819;28;20061;-65
2022/09/22 03:51:18;;;;;;;9.40;3.35;;;;;;;8.76;86.04;101746.53;4951345;28;20576;-64
2022/09/22 03:53:45;;;;;;;8.07;2.67;;;;;;;8.75;85.08;101750.06;4971133;28;20069;-64
2022/09/22 03:56:14;;;;;;;6.75;2.50;;;;;;;8.76;84.67;101745.66;4967984;28;20057;-64
2022/09/22 03:58:42;;;;;;;6.45;2.83;;;;;;;8.76;84.15;101749.16;4971236;28;20054;-65
2022/09/22 04:01:10;;;;;;;7.13;2.92;;;;;;;8.73;85.57;101749.25;4969115;28;20910;-64
2022/09/22 04:03:38;;;;;;;8.50;3.08;;;;;;;8.70;84.42;101746.75;4970026;28;20465;-64
2022/09/22 04:06:05;;;;;;;7.65;2.80;;;;;;;8.73;84.12;101744.00;4968986;28;20050;-65
2022/09/22 04:08:32;;;;;;;8.88;2.72;;;;;;;8.76;83.62;101743.91;4969295;28;20053;-65
2022/09/22 04:11:00;;;;;;;9.00;3.08;;;;;;;8.72;84.55;101738.81;4967886;28;20068;-65
2022/09/22 04:13:27;;;;;;;6.07;2.67;;;;;;;8.64;84.38;101739.03;4967023;28;20051;-64
2022/09/22 04:15:55;;;;;;;8.32;3.42;;;;;;;8.62;83.96;101733.00;4966290;28;20051;-65
2022/09/22 04:18:22;;;;;;;5.70;2.67;;;;;;;8.68;83.56;101735.41;4968799;28;20051;-64
2022/09/22 04:20:50;;;;;;;4.43;2.80;;;;;;;8.75;82.63;101738.72;4967722;28;20058;-64
2022/09/22 04:23:17;;;;;;;4.22;3.03;;;;;;;8.76;82.52;101740.41;4969392;28;20058;-65
2022/09/22 04:25:44;;;;;;;5.35;2.60;;;;;;;8.70;82.90;101738.00;4973778;28;20057;-66
2022/09/22 04:28:11;;;;;;;7.88;2.78;;;;;;;8.63;83.08;101735.56;4981124;28;20046;-64
2022/09/22 04:30:39;;;;;;;7.28;3.00;;;;;;;8.64;82.64;101741.66;4981895;28;20061;-65
2022/09/22 04:33:06;;;;;;;7.45;2.88;;;;;;;8.60;82.79;101734.81;4987161;28;20309;-65
2022/09/22 04:35:33;;;;;;;5.68;2.70;;;;;;;8.61;82.44;101742.66;4985161;28;20062;-65
2022/09/22 04:38:00;;;;;;;6.85;3.28;;;;;;;8.58;83.30;101736.63;4971320;28;20047;-65
2022/09/22 04:40:28;;;;;;;8.15;4.40;;;;;;;8.60;82.86;101740.94;4970159;28;20057;-66
2022/09/22 04:42:56;;;;;;;9.90;4.47;;;;;;;8.62;82.31;101744.34;4987952;28;20538;-64
2022/09/22 04:45:23;;;;;;;6.55;3.50;;;;;;;8.59;82.38;101741.81;4980607;28;20137;-64
2022/09/22 04:47:51;;;;;;;6.65;4.15;;;;;;;8.54;82.75;101735.88;4984592;28;20043;-65
2022/09/22 04:50:20;;;;;;;8.55;3.90;;;;;;;8.54;82.42;101741.13;4980240;28;20376;-65
2022/09/22 04:52:50;;;;;;;7.82;3.25;;;;;;;8.57;82.26;101743.66;4988935;28;20042;-65
2022/09/22 04:55:18;;;;;;;10.13;3.60;;;;;;;8.57;82.91;101745.44;4982292;28;20049;-64
2022/09/22 04:57:50;;;;;;;7.18;3.65;;;;;;;8.49;83.06;101748.28;4971627;28;20054;-65
2022/09/22 05:00:18;;;;;;;9.30;3.45;;;;;;;8.50;82.92;101743.88;4983263;28;20061;-65
2022/09/22 05:02:45;;;;;;;8.27;3.45;;;;;;;8.44;83.24;101747.59;4987822;28;20531;-66
2022/09/22 05:05:13;;;;;;;10.68;3.80;;;;;;;8.36;84.83;101746.94;4988816;28;20043;-64
2022/09/22 05:07:53;;;;;;;8.50;4.32;;;;;;;8.37;84.10;101743.44;4967668;28;20034;-63
2022/09/22 05:10:23;;;;;;;11.82;3.50;;;;;;;8.38;84.20;101745.16;4987259;28;20050;-65
2022/09/22 05:12:54;;;;;;;9.18;3.42;;;;;;;8.41;83.02;101744.19;4965418;28;20046;-66
2022/09/22 05:15:21;;;;;;;7.30;3.50;;;;;;;8.42;82.97;101743.28;4986494;28;20522;-64
2022/09/22 05:17:51;;;;;;;5.57;3.42;;;;;;;8.48;82.60;101748.34;4989300;28;20050;-64
2022/09/22 05:20:19;;;;;;;10.30;4.13;;;;;;;8.49;82.38;101747.44;4963053;28;20427;-65
2022/09/22 05:22:47;;;;;;;9.98;4.15;;;;;;;8.43;83.33;101751.13;4988048;28;20051;-65
2022/09/22 05:25:17;;;;;;;7.95;3.78;;;;;;;8.39;82.72;101754.75;4989991;28;20084;-64
2022/09/22 05:27:49;;;;;;;8.80;3.50;;;;;;;8.40;82.72;101745.09;4971672;28;20460;-65
2022/09/22 05:30:17;;;;;;;6.63;3.63;;;;;;;8.40;82.69;101745.97;4970595;28;20055;-65
2022/09/22 05:32:45;;;;;;;7.35;3.65;;;;;;;8.37;82.42;101753.91;4990777;28;20133;-64
2022/09/22 05:35:18;;;;;;;11.20;3.65;;;;;;;8.33;83.48;101747.91;4990210;28;20066;-65
2022/09/22 05:37:46;;;;;;;10.95;4.15;;;;;;;8.34;82.34;101754.00;4985316;28;20066;-66
2022/09/22 05:40:14;;;;;;;10.63;6.75;;;;;;;8.39;83.09;101760.00;4948704;28;20499;-66
2022/09/22 05:42:46;;;;;;;9.48;4.35;;;;;;;8.41;83.16;101760.78;4982913;28;20065;-66
2022/09/22 05:45:13;;;;;;;9.38;5.05;;;;;;;8.41;83.94;101763.41;4983301;28;20046;-66
2022/09/22 05:47:41;;;;;;;9.77;4.72;;;;;;;8.36;83.56;101763.56;4974199;28;20050;-65
2022/09/22 05:50:10;;;;;;;16.50;4.38;;;;;;;8.39;83.29;101761.75;4963492;28;20054;-65
2022/09/22 05:52:37;;;;;;;7.53;3.88;;;;;;;8.46;83.22;101768.50;4983350;28;20062;-65
2022/09/22 05:55:05;;;;;;;7.22;4.13;;;;;;;8.45;83.96;101770.28;4979221;28;20066;-67
2022/09/22 05:57:33;;;;;;;7.25;3.88;;;;;;;8.45;83.55;101762.41;4978217;28;20050;-64
2022/09/22 06:00:00;;;;;;;7.72;3.92;;;;;;;8.47;82.94;101765.88;4979512;28;20054;-66
2022/09/22 06:02:27;;;;;;;8.68;4.15;;;;;;;8.52;81.89;101768.34;4981814;28;20665;-66
2022/09/22 06:04:54;;;;;;;8.32;3.70;;;;;;;8.56;81.69;101765.56;4980788;28;20069;-66
2022/09/22 06:07:25;;;;;;;9.40;3.60;;;;;;;8.60;81.99;101767.19;4979895;28;20050;-64
2022/09/22 06:09:52;;;;;;;12.55;4.18;;;;;;;8.62;81.30;101767.97;4986220;28;20408;-64
2022/09/22 06:12:19;;;;;;;10.00;3.65;;;;;;;8.68;81.01;101771.31;4983890;28;20116;-64
2022/09/22 06:14:46;;;;;;;10.43;3.75;;;;;;;8.69;81.84;101771.28;4979332;28;20706;-65
2022/09/22 06:17:13;;;;;;;10.75;3.60;;;;;;;8.73;80.84;101765.00;4985117;28;20060;-63
2022/09/22 06:19:42;;;;;;;7.30;3.92;;;;;;;8.79;81.20;101771.84;4983396;28;20058;-65
2022/09/22 06:22:10;;;;;;;8.73;4.20;;;;;;;8.84;81.10;101772.53;4980451;28;20061;-65
2022/09/22 06:24:37;;;;;;;7.18;3.55;;;;;;;8.88;80.76;101772.38;4979582;28;20055;-64
2022/09/22 06:27:04;;;;;;;7.65;3.40;;;;;;;8.96;80.60;101779.13;4981782;28;20146;-64
2022/09/22 06:29:31;;;;;;;7.35;4.20;;;;;;;9.03;80.00;101775.38;4978404;28;20065;-65
2022/09/22 06:31:58;;;;;;;6.60;3.60;;;;;;;9.07;80.30;101780.47;4981614;28;20054;-65
2022/09/22 06:34:26;;;;;;;5.80;3.15;;;;;;;9.13;80.05;101784.66;4962425;28;20078;-61
2022/09/22 06:36:58;;;;;;;6.47;3.10;;;;;;;9.18;79.56;101782.72;4965450;28;20062;-64
2022/09/22 06:39:26;;;;;;;4.70;2.90;;;;;;;9.27;80.74;101773.69;4964870;28;20055;-64
2022/09/22 06:41:54;;;;;;;3.47;2.30;;;;;;;9.32;82.40;101777.00;4965603;28;20070;-63
2022/09/22 06:44:21;;;;;;;11.27;2.85;;;;;;;9.35;81.07;101775.13;4969062;28;20511;-66
2022/09/22 06:46:48;;;;;;;3.42;2.13;;;;;;;9.40;80.01;101769.69;4964445;28;20077;-66
2022/09/22 06:49:15;;;;;;;4.93;2.22;;;;;;;9.45;79.25;101770.38;4967211;28;20070;-64
2022/09/22 06:51:42;;;;;;;2.78;1.85;;;;;;;9.53;79.17;101770.97;4962814;28;20069;-63
2022/09/22 06:54:09;;;;;;;5.55;2.38;;;;;;;9.60;79.68;101766.38;4973289;28;20606;-64
2022/09/22 06:56:41;;;;;;;5.05;2.20;;;;;;;9.64;79.54;101760.09;4974825;28;20586;-65
2022/09/22 06:59:13;;;;;;;9.38;2.92;;;;;;;9.71;78.98;101760.72;4963618;28;20062;-63
2022/09/22 07:01:40;;;;;;;3.47;2.25;;;;;;;9.76;79.44;101767.50;4966727;28;20059;-65
2022/09/22 07:04:10;;;;;;;4.35;2.15;;;;;;;9.82;78.57;101763.81;4961973;28;20088;-64
2022/09/22 07:06:38;;;;;;;4.65;2.80;;;;;;;9.87;79.25;101761.84;4962454;28;20058;-64
2022/09/22 07:09:06;;;;;;;5.55;2.83;;;;;;;9.94;78.64;101768.59;4968744;28;20043;-65
2022/09/22 07:11:33;;;;;;;5.35;2.50;;;;;;;10.01;78.28;101775.34;4951456;28;20055;-64
2022/09/22 07:14:07;;;;;;;5.75;2.60;;;;;;;10.08;78.31;101771.53;4966114;28;20069;-65
2022/09/22 07:16:35;;;;;;;7.57;2.67;;;;;;;10.17;80.01;101772.97;4974990;28;20047;-64
2022/09/22 07:19:03;;;;;;;8.07;2.58;;;;;;;10.24;80.06;101779.75;4972782;28;20051;-64
2022/09/22 07:21:35;;;;;;;8.15;2.58;;;;;;;10.29;80.24;101776.94;4973099;28;20050;-66
2022/09/22 07:24:03;;;;;;;5.40;2.25;;;;;;;10.38;80.25;101780.06;4954837;28;20081;-64
2022/09/22 07:26:33;;;;;;;3.88;1.83;;;;;;;10.45;79.70;101770.16;4970178;28;20061;-63
2022/09/22 07:29:07;;;;;;;6.30;2.40;;;;;;;10.52;80.23;101776.88;4970015;28;20675;-62
2022/09/22 07:31:35;;;;;;;7.13;2.42;;;;;;;10.56;80.38;101775.81;4970536;28;20077;-64
2022/09/22 07:34:02;;;;;;;4.82;2.28;;;;;;;10.60;79.84;101773.94;4990900;28;20572;-64
2022/09/22 07:36:31;;;;;;;6.30;2.63;;;;;;;10.66;79.33;101773.66;4990856;28;20058;-64
2022/09/22 07:39:16;;;;;;;3.63;2.13;;;;;;;10.72;78.78;101778.72;4991909;28;20054;-65
2022/09/22 07:41:43;;;;;;;3.80;1.85;;;;;;;10.79;78.22;101768.75;4990388;28;20050;-64
2022/09/22 07:46:59;;;;;;;2.60;1.60;;;;;;;10.91;79.49;101765.63;4985052;28;20050;-64
2022/09/22 07:49:26;;;;;;;4.03;1.48;;;;;;;10.96;79.96;101768.91;4987453;28;20057;-64
2022/09/22 07:51:54;;;;;;;7.88;1.63;;;;;;;11.05;79.32;101767.66;4987778;28;20065;-63
2022/09/22 07:54:25;;;;;;;5.40;1.40;;;;;;;11.10;78.43;101765.69;4967582;28;20050;-64
2022/09/22 07:56:57;;;;;;;4.65;1.30;;;;;;;11.15;78.42;101774.25;4987037;28;20065;-64
2022/09/22 07:59:26;;;;;;;3.58;1.35;;;;;;;11.22;79.38;101772.22;4985052;28;20069;-64
2022/09/22 08:01:54;;;;;;;3.67;1.33;;;;;;;11.26;78.67;101768.53;4971722;28;20518;-65
2022/09/22 08:04:22;;;;;;;3.97;1.38;;;;;;;11.35;78.10;101778.69;4963662;28;20050;-65
2022/09/22 08:06:54;;;;;;;2.45;1.75;;;;;;;11.44;78.96;101783.56;4987500;28;20066;-65
2022/09/22 08:09:21;;;;;;;4.65;1.90;;;;;;;11.52;78.24;101783.19;4967427;28;20054;-65
2022/09/22 08:11:48;;;;;;;3.30;1.55;;;;;;;11.58;77.94;101780.31;4972587;28;20069;-65
2022/09/22 08:14:16;;;;;;;3.53;1.48;;;;;;;11.60;78.42;101778.44;4988999;28;20054;-65
2022/09/22 08:16:44;;;;;;;4.28;1.45;;;;;;;11.65;78.15;101781.72;4984281;28;20057;-64
2022/09/22 08:19:12;;;;;;;3.63;1.30;;;;;;;11.72;77.69;101777.03;4985245;28;20057;-65
2022/09/22 08:21:44;;;;;;;3.92;1.08;;;;;;;11.87;77.90;101773.72;4981712;28;20066;-65
2022/09/22 08:24:21;;;;;;;1.73;0.95;;;;;;;11.96;78.02;101781.22;4977873;28;20065;-65
2022/09/22 08:26:51;;;;;;;2.00;0.90;;;;;;;12.04;77.55;101784.34;4981217;28;20058;-65
2022/09/22 08:29:18;;;;;;;3.47;1.05;;;;;;;12.12;76.81;101782.22;4988279;28;20053;-65
2022/09/22 08:31:46;;;;;;;1.15;0.75;;;;;;;12.17;76.16;101784.66;4987417;28;20100;-63
2022/09/22 08:34:15;;;;;;;2.13;0.90;;;;;;;12.17;76.86;101789.94;4954386;28;20082;-65
2022/09/22 08:36:45;;;;;;;2.35;1.00;;;;;;;12.25;76.42;101793.06;4965974;28;20079;-65
2022/09/22 08:39:14;;;;;;;2.38;0.70;;;;;;;12.31;75.25;101790.13;4965433;28;20523;-65
2022/09/22 08:41:45;;;;;;;2.00;0.75;;;;;;;12.39;75.24;101793.25;4966513;28;20046;-64
2022/09/22 08:44:15;;;;;;;1.35;0.57;;;;;;;12.51;74.68;101796.22;4966833;28;20439;-65
2022/09/22 08:46:44;;;;;;;8.52;0.82;;;;;;;12.65;74.79;101797.28;4946849;28;20059;-65
2022/09/22 08:52:05;;;;;;;1.98;0.80;;;;;;;12.78;73.96;101788.75;4956490;28;20066;-65
2022/09/22 08:54:34;;;;;;;2.40;0.90;;;;;;;12.85;73.78;101795.44;4951232;28;20055;-65
2022/09/22 08:57:25;;;;;;;1.58;0.70;;;;;;;12.89;73.96;101786.44;4966855;28;20051;-65
2022/09/22 09:00:09;;;;;;;3.42;0.73;;;;;;;12.98;73.50;101785.97;4968393;28;20059;-65
2022/09/22 09:02:53;;;;;;;4.95;0.80;;;;;;;12.98;72.90;101791.25;4968030;28;20444;-65
2022/09/22 09:06:02;;;;;;;1.98;1.15;;;;;;;13.00;72.81;101786.72;4962862;28;20078;-65
2022/09/22 09:09:02;;;;;;;2.08;0.60;;;;;;;13.12;72.58;101785.25;4964705;28;20065;-65
2022/09/22 09:12:05;;;;;;;0.98;0.52;;;;;;;13.15;72.09;101785.97;4959862;28;20050;-64
2022/09/22 09:14:54;;;;;;;2.33;0.75;;;;;;;13.20;71.90;101785.72;4960066;28;20050;-65
2022/09/22 09:17:28;;;;;;;2.80;0.52;;;;;;;13.27;71.37;101781.84;4949790;28;20072;-65
2022/09/22 09:19:58;;;;;;;3.13;0.80;;;;;;;13.35;71.29;101773.53;4950245;28;20059;-64
2022/09/22 09:22:34;;;;;;;2.97;0.82;;;;;;;13.39;71.25;101775.94;4966150;28;20069;-64
2022/09/22 09:25:06;;;;;;;4.03;1.27;;;;;;;13.43;70.50;101779.28;4982583;28;20110;-65
2022/09/22 09:27:55;;;;;;;1.85;0.50;;;;;;;13.44;69.75;101770.41;4980460;28;20516;-63
2022/09/22 09:30:23;;;;;;;1.40;0.68;;;;;;;13.43;69.92;101772.19;4966259;28;20047;-62
2022/09/22 09:33:00;;;;;;;1.92;0.50;;;;;;;13.42;69.76;101778.44;4977244;28;20065;-64
2022/09/22 09:35:46;;;;;;;3.65;0.60;;;;;;;13.47;69.64;101774.69;4979974;28;20062;-65
2022/09/22 09:38:16;;;;;;;2.65;0.88;;;;;;;13.51;69.07;101771.81;4967124;28;20050;-65
2022/09/22 09:40:53;;;;;;;1.33;0.70;;;;;;;13.60;69.34;101771.31;4982259;28;20057;-66
2022/09/22 09:43:23;;;;;;;1.60;0.88;;;;;;;13.68;68.87;101770.88;4964423;28;20523;-65
2022/09/22 09:46:16;;;;;;;1.40;0.57;;;;;;;13.79;68.83;101765.03;4984371;28;20064;-65
2022/09/22 09:48:59;;;;;;;1.77;0.52;;;;;;;13.93;68.24;101771.28;4984664;28;20141;-65
2022/09/22 09:51:26;;;;;;;4.15;0.70;;;;;;;14.04;66.85;101770.66;4976260;28;20526;-66
2022/09/22 09:53:54;;;;;;;2.20;0.63;;;;;;;14.15;66.33;101773.59;4984619;28;20507;-65
2022/09/22 09:56:24;;;;;;;2.58;0.98;;;;;;;14.30;66.81;101771.03;4982415;28;20058;-64
2022/09/22 10:01:42;;;;;;;2.30;0.75;;;;;;;14.38;64.55;101774.94;4985065;28;20050;-66
2022/09/22 10:04:28;;;;;;;2.20;0.70;;;;;;;14.40;65.35;101769.56;4966945;28;20050;-65
2022/09/22 10:07:09;;;;;;;1.30;0.70;;;;;;;14.41;63.34;101769.50;4981953;28;20069;-65
2022/09/22 10:09:36;;;;;;;4.28;1.27;;;;;;;14.50;64.12;101764.63;4964252;28;20062;-65
2022/09/22 10:12:04;;;;;;;2.58;0.80;;;;;;;14.56;64.48;101759.84;4987131;28;20050;-65
2022/09/22 10:14:33;;;;;;;2.83;1.10;;;;;;;14.59;62.88;101764.97;4984572;28;20050;-65
2022/09/22 10:17:02;;;;;;;3.47;0.80;;;;;;;14.58;63.00;101759.72;4986308;28;20054;-65
2022/09/22 10:19:30;;;;;;;3.50;1.00;;;;;;;14.54;63.55;101772.28;4982551;28;20062;-65
2022/09/22 10:22:19;;;;;;;4.45;1.33;;;;;;;14.44;61.97;101763.16;4985903;28;20053;-65
2022/09/22 10:24:58;;;;;;;3.03;1.13;;;;;;;14.38;62.72;101761.69;4957654;28;20082;-64
2022/09/22 10:27:26;;;;;;;1.60;0.80;;;;;;;14.34;62.84;101765.47;4986317;28;20050;-68
2022/09/22 10:30:26;;;;;;;17.40;1.40;;;;;;;14.41;63.43;101768.63;4986251;28;20046;-64
2022/09/22 10:33:03;;;;;;;4.78;1.23;;;;;;;14.52;63.03;101766.25;4948964;28;20065;-65
2022/09/22 10:35:33;;;;;;;4.07;1.08;;;;;;;14.69;62.58;101762.63;4968939;28;20414;-64
2022/09/22 10:38:08;;;;;;;2.28;0.88;;;;;;;14.87;61.90;101764.22;4969001;28;20058;-64
2022/09/22 10:40:38;;;;;;;3.65;0.57;;;;;;;15.07;62.39;101760.34;4967471;28;20055;-64
2022/09/22 10:43:14;;;;;;;3.33;0.88;;;;;;;15.28;62.23;101762.69;4966165;28;20050;-65
2022/09/22 10:45:49;;;;;;;1.70;0.75;;;;;;;15.46;61.33;101761.56;4965932;28;21256;-65
2022/09/22 10:48:27;;;;;;;3.30;1.10;;;;;;;15.69;61.46;101762.81;4966634;28;20063;-64
2022/09/22 10:51:13;;;;;;;2.28;0.80;;;;;;;15.82;59.13;101760.25;4969281;28;20065;-65
2022/09/22 10:54:04;;;;;;;2.85;0.77;;;;;;;15.93;57.86;101765.72;4972808;28;20063;-63
2022/09/22 10:56:38;;;;;;;2.28;0.90;;;;;;;16.10;57.68;101762.84;4963023;28;20054;-65
2022/09/22 10:59:24;;;;;;;1.23;0.70;;;;;;;16.27;56.71;101763.59;4985584;28;20055;-64
2022/09/22 11:02:43;;;;;;;2.33;1.02;;;;;;;16.31;56.01;101757.97;4971652;28;20066;-64
2022/09/22 11:12:15;;;;;;;1.55;0.90;;;;;;;16.24;56.34;101756.66;4904574;29;20048;-62
2022/09/22 11:14:42;;;;;;;5.15;0.98;;;;;;;16.46;56.20;101754.31;4969991;28;20141;-63
2022/09/22 11:17:24;;;;;;;1.23;0.50;;;;;;;16.69;55.91;101754.59;4972530;28;20536;-64
2022/09/22 11:20:09;;;;;;;1.20;0.65;;;;;;;16.90;55.52;101750.53;4968592;28;20126;-63
2022/09/22 11:22:50;;;;;;;4.13;0.73;;;;;;;17.03;52.92;101752.38;4968358;28;20538;-64
2022/09/22 11:25:21;;;;;;;1.20;0.63;;;;;;;16.97;50.74;101758.94;4974967;28;20093;-64
2022/09/22 11:28:19;;;;;;;1.70;0.77;;;;;;;16.95;51.08;101747.56;4972396;28;20057;-64
2022/09/22 11:30:50;;;;;;;1.35;0.70;;;;;;;17.09;51.67;101736.81;4968998;28;20391;-64
2022/09/22 11:33:32;;;;;;;1.42;0.80;;;;;;;17.33;51.21;101728.09;4983259;28;20078;-64
2022/09/22 11:36:05;;;;;;;3.13;0.85;;;;;;;17.56;51.99;101727.34;4969911;28;20097;-64
2022/09/22 11:38:50;;;;;;;0.55;0.30;;;;;;;17.85;51.44;101727.09;4968450;28;20089;-64
2022/09/22 11:41:41;;;;;;;0.95;0.55;;;;;;;18.12;48.95;101724.25;4964873;28;20499;-64
2022/09/22 11:44:27;;;;;;;3.72;0.70;;;;;;;18.41;49.37;101724.75;4968944;28;20058;-64
2022/09/22 11:47:07;;;;;;;0.73;0.40;;;;;;;18.71;49.05;101724.31;4968462;28;20065;-64
2022/09/22 11:49:54;;;;;;;1.25;0.60;;;;;;;18.87;48.26;101719.50;4971159;28;20054;-64
2022/09/22 11:52:41;;;;;;;2.22;0.60;;;;;;;19.19;47.45;101713.50;4968527;28;20500;-64
2022/09/22 11:55:29;;;;;;;2.92;0.63;;;;;;;19.42;46.91;101714.38;4968642;28;20077;-63
2022/09/22 11:57:59;;;;;;;1.98;0.65;;;;;;;19.65;46.79;101710.75;4971860;28;20055;-64
2022/09/22 12:00:33;;;;;;;1.25;0.80;;;;;;;19.95;46.29;101709.25;4981399;28;20042;-65
2022/09/22 12:03:08;;;;;;;1.00;0.43;;;;;;;20.27;46.31;101711.97;4977405;28;20062;-63
2022/09/22 12:05:57;;;;;;;3.15;0.40;;;;;;;20.35;43.12;101714.81;4973883;28;20062;-63
2022/09/22 12:08:28;;;;;;;0.65;0.50;;;;;;;20.61;44.83;101704.66;4967092;28;20057;-63